sensor_id;sensor_type;location;lat;lon;timestamp;pressure;altitude;pressure_sealevel;temperature;humidity
73558;BME280;61829;53.286;10.434;2022-09-20T00:00:46;101513.81;;;8.37;91.20
73558;BME280;61829;53.286;10.434;2022-09-20T00:03:25;101516.66;;;8.36;91.43
73558;BME280;61829;53.286;10.434;2022-09-20T00:05:52;101516.81;;;8.34;91.69
73558;BME280;61829;53.286;10.434;2022-09-20T00:08:17;101520.81;;;8.30;91.92
73558;BME280;61829;53.286;10.434;2022-09-20T00:10:44;101521.13;;;8.27;91.59
73558;BME280;61829;53.286;10.434;2022-09-20T00:13:12;101519.59;;;8.24;91.81
73558;BME280;61829;53.286;10.434;2022-09-20T00:15:43;101523.09;;;8.25;91.73
73558;BME280;61829;53.286;10.434;2022-09-20T00:18:10;101528.78;;;8.22;91.77
73558;BME280;61829;53.286;10.434;2022-09-20T00:20:44;101529.94;;;8.19;91.57
73558;BME280;61829;53.286;10.434;2022-09-20T00:23:10;101529.22;;;8.17;91.71
73558;BME280;61829;53.286;10.434;2022-09-20T00:25:36;101532.91;;;8.16;91.66
73558;BME280;61829;53.286;10.434;2022-09-20T00:28:02;101537.75;;;8.13;91.66
73558;BME280;61829;53.286;10.434;2022-09-20T00:30:28;101537.75;;;8.13;91.35
73558;BME280;61829;53.286;10.434;2022-09-20T00:32:54;101536.03;;;8.12;91.31
73558;BME280;61829;53.286;10.434;2022-09-20T00:35:20;101535.34;;;8.09;91.21
73558;BME280;61829;53.286;10.434;2022-09-20T00:37:46;101531.16;;;8.07;90.99
73558;BME280;61829;53.286;10.434;2022-09-20T00:40:15;101539.34;;;8.05;90.55
73558;BME280;61829;53.286;10.434;2022-09-20T00:42:42;101541.19;;;8.05;90.65
73558;BME280;61829;53.286;10.434;2022-09-20T00:47:54;101537.81;;;8.03;90.62
73558;BME280;61829;53.286;10.434;2022-09-20T00:50:41;101544.47;;;7.99;90.87
73558;BME280;61829;53.286;10.434;2022-09-20T00:53:16;101543.06;;;7.95;91.48
73558;BME280;61829;53.286;10.434;2022-09-20T00:55:50;101548.59;;;7.93;90.90
73558;BME280;61829;53.286;10.434;2022-09-20T00:58:18;101541.84;;;7.89;90.82
73558;BME280;61829;53.286;10.434;2022-09-20T01:04:42;101545.13;;;7.83;91.78
73558;BME280;61829;53.286;10.434;2022-09-20T01:07:12;101545.13;;;7.83;92.06
73558;BME280;61829;53.286;10.434;2022-09-20T01:09:38;101542.75;;;7.80;92.19
73558;BME280;61829;53.286;10.434;2022-09-20T01:12:11;101547.25;;;7.79;92.22
73558;BME280;61829;53.286;10.434;2022-09-20T01:14:39;101542.88;;;7.78;91.94
73558;BME280;61829;53.286;10.434;2022-09-20T01:17:08;101541.19;;;7.77;91.92
73558;BME280;61829;53.286;10.434;2022-09-20T01:22:03;101544.03;;;7.76;92.92
73558;BME280;61829;53.286;10.434;2022-09-20T01:24:44;101539.13;;;7.71;92.85
73558;BME280;61829;53.286;10.434;2022-09-20T01:32:24;101544.59;;;7.70;93.75
73558;BME280;61829;53.286;10.434;2022-09-20T01:34:58;101540.25;;;7.69;93.79
73558;BME280;61829;53.286;10.434;2022-09-20T01:37:28;101543.78;;;7.69;93.20
73558;BME280;61829;53.286;10.434;2022-09-20T01:40:12;101553.66;;;7.69;93.51
73558;BME280;61829;53.286;10.434;2022-09-20T01:42:48;101551.81;;;7.69;93.75
73558;BME280;61829;53.286;10.434;2022-09-20T01:45:34;101553.66;;;7.69;93.66
73558;BME280;61829;53.286;10.434;2022-09-20T01:51:26;101555.63;;;7.67;93.25
73558;BME280;61829;53.286;10.434;2022-09-20T01:54:44;101548.72;;;7.64;93.58
73558;BME280;61829;53.286;10.434;2022-09-20T02:00:05;101555.94;;;7.63;93.18
73558;BME280;61829;53.286;10.434;2022-09-20T02:08:32;101558.91;;;7.60;93.25
73558;BME280;61829;53.286;10.434;2022-09-20T02:11:08;101560.22;;;7.56;93.32
73558;BME280;61829;53.286;10.434;2022-09-20T02:27:50;101574.22;;;7.50;92.51
73558;BME280;61829;53.286;10.434;2022-09-20T02:30:45;101567.31;;;7.48;93.13
73558;BME280;61829;53.286;10.434;2022-09-20T02:38:40;101566.19;;;7.40;93.31
73558;BME280;61829;53.286;10.434;2022-09-20T02:57:50;101577.09;;;7.29;93.55
73558;BME280;61829;53.286;10.434;2022-09-20T03:00:23;101576.25;;;7.29;93.38
73558;BME280;61829;53.286;10.434;2022-09-20T03:08:14;101599.97;;;7.24;93.64
73558;BME280;61829;53.286;10.434;2022-09-20T03:13:21;101591.19;;;7.22;93.85
73558;BME280;61829;53.286;10.434;2022-09-20T03:27:43;101604.91;;;7.18;94.54
73558;BME280;61829;53.286;10.434;2022-09-20T03:41:09;101618.47;;;7.17;95.14
73558;BME280;61829;53.286;10.434;2022-09-20T03:44:04;101628.34;;;7.16;95.47
73558;BME280;61829;53.286;10.434;2022-09-20T03:46:38;101621.13;;;7.17;95.59
73558;BME280;61829;53.286;10.434;2022-09-20T04:01:08;101626.34;;;7.18;96.18
73558;BME280;61829;53.286;10.434;2022-09-20T04:03:54;101634.25;;;7.20;96.67
73558;BME280;61829;53.286;10.434;2022-09-20T04:12:21;101632.69;;;7.17;95.97
73558;BME280;61829;53.286;10.434;2022-09-20T04:18:04;101638.19;;;7.16;95.87
73558;BME280;61829;53.286;10.434;2022-09-20T04:21:12;101642.03;;;7.13;95.29
73558;BME280;61829;53.286;10.434;2022-09-20T04:23:56;101647.66;;;7.10;94.69
73558;BME280;61829;53.286;10.434;2022-09-20T04:26:29;101649.66;;;7.08;95.22
73558;BME280;61829;53.286;10.434;2022-09-20T04:29:04;101645.53;;;7.04;95.37
73558;BME280;61829;53.286;10.434;2022-09-20T04:31:45;101654.41;;;7.05;95.27
73558;BME280;61829;53.286;10.434;2022-09-20T04:34:24;101654.28;;;7.06;95.80
73558;BME280;61829;53.286;10.434;2022-09-20T04:37:26;101651.59;;;7.06;95.90
73558;BME280;61829;53.286;10.434;2022-09-20T04:40:01;101652.59;;;7.05;96.04
73558;BME280;61829;53.286;10.434;2022-09-20T04:56:52;101667.56;;;7.08;95.53
73558;BME280;61829;53.286;10.434;2022-09-20T05:07:44;101675.00;;;7.04;95.04
73558;BME280;61829;53.286;10.434;2022-09-20T05:34:44;101695.19;;;7.08;93.82
73558;BME280;61829;53.286;10.434;2022-09-20T05:40:16;101696.47;;;7.24;93.79
73558;BME280;61829;53.286;10.434;2022-09-20T05:43:15;101696.16;;;7.56;93.84
73558;BME280;61829;53.286;10.434;2022-09-20T06:07:51;101723.34;;;9.72;85.39
73558;BME280;61829;53.286;10.434;2022-09-20T06:13:27;101732.53;;;10.22;83.29
73558;BME280;61829;53.286;10.434;2022-09-20T06:16:03;101725.81;;;10.52;82.02
73558;BME280;61829;53.286;10.434;2022-09-20T06:23:49;101728.38;;;11.78;78.26
73558;BME280;61829;53.286;10.434;2022-09-20T06:26:20;101725.75;;;12.25;76.36
73558;BME280;61829;53.286;10.434;2022-09-20T06:28:51;101724.03;;;12.72;75.18
73558;BME280;61829;53.286;10.434;2022-09-20T06:31:19;101734.25;;;13.16;73.60
73558;BME280;61829;53.286;10.434;2022-09-20T06:34:13;101740.25;;;13.57;72.29
73558;BME280;61829;53.286;10.434;2022-09-20T06:36:46;101734.44;;;13.98;70.90
73558;BME280;61829;53.286;10.434;2022-09-20T06:39:48;101749.22;;;14.40;69.36
73558;BME280;61829;53.286;10.434;2022-09-20T06:42:36;101741.72;;;14.72;68.92
73558;BME280;61829;53.286;10.434;2022-09-20T06:45:03;101749.16;;;14.99;67.65
73558;BME280;61829;53.286;10.434;2022-09-20T06:47:29;101752.38;;;15.24;67.06
73558;BME280;61829;53.286;10.434;2022-09-20T06:49:55;101749.19;;;15.42;66.13
73558;BME280;61829;53.286;10.434;2022-09-20T06:52:23;101757.53;;;15.41;64.48
73558;BME280;61829;53.286;10.434;2022-09-20T06:54:51;101755.63;;;15.35;63.97
73558;BME280;61829;53.286;10.434;2022-09-20T06:57:32;101755.16;;;15.53;65.44
73558;BME280;61829;53.286;10.434;2022-09-20T07:00:04;101763.16;;;15.82;64.72
73558;BME280;61829;53.286;10.434;2022-09-20T07:02:31;101758.97;;;16.08;64.12
73558;BME280;61829;53.286;10.434;2022-09-20T07:04:57;101758.88;;;16.23;63.46
73558;BME280;61829;53.286;10.434;2022-09-20T07:07:23;101755.22;;;16.44;64.21
73558;BME280;61829;53.286;10.434;2022-09-20T07:09:50;101757.69;;;16.38;62.46
73558;BME280;61829;53.286;10.434;2022-09-20T07:12:16;101761.16;;;16.60;63.22
73558;BME280;61829;53.286;10.434;2022-09-20T07:14:43;101759.44;;;16.88;62.83
73558;BME280;61829;53.286;10.434;2022-09-20T07:17:09;101767.03;;;17.05;60.77
73558;BME280;61829;53.286;10.434;2022-09-20T07:19:36;101760.91;;;16.90;60.26
73558;BME280;61829;53.286;10.434;2022-09-20T07:22:02;101768.09;;;17.04;61.47
73558;BME280;61829;53.286;10.434;2022-09-20T07:24:28;101775.25;;;17.32;60.76
73558;BME280;61829;53.286;10.434;2022-09-20T07:26:59;101770.44;;;17.41;59.80
73558;BME280;61829;53.286;10.434;2022-09-20T07:29:27;101776.34;;;17.51;59.39
73558;BME280;61829;53.286;10.434;2022-09-20T07:31:55;101776.78;;;17.68;59.59
73558;BME280;61829;53.286;10.434;2022-09-20T07:34:21;101785.22;;;17.86;58.40
73558;BME280;61829;53.286;10.434;2022-09-20T07:36:47;101778.91;;;18.06;58.22
73558;BME280;61829;53.286;10.434;2022-09-20T07:39:15;101786.06;;;18.07;58.21
73558;BME280;61829;53.286;10.434;2022-09-20T07:41:42;101784.75;;;18.23;58.00
73558;BME280;61829;53.286;10.434;2022-09-20T07:44:14;101793.97;;;18.28;57.76
73558;BME280;61829;53.286;10.434;2022-09-20T07:46:48;101790.16;;;18.43;57.31
73558;BME280;61829;53.286;10.434;2022-09-20T07:49:14;101798.97;;;18.58;57.57
73558;BME280;61829;53.286;10.434;2022-09-20T07:51:40;101800.81;;;18.71;56.88
73558;BME280;61829;53.286;10.434;2022-09-20T07:54:06;101799.78;;;18.72;56.95
73558;BME280;61829;53.286;10.434;2022-09-20T07:56:33;101798.06;;;18.71;57.17
73558;BME280;61829;53.286;10.434;2022-09-20T07:58:59;101804.41;;;18.78;57.48
73558;BME280;61829;53.286;10.434;2022-09-20T08:01:25;101800.44;;;18.60;56.95
73558;BME280;61829;53.286;10.434;2022-09-20T08:03:51;101808.19;;;18.77;57.16
73558;BME280;61829;53.286;10.434;2022-09-20T08:06:53;101815.22;;;19.04;56.68
73558;BME280;61829;53.286;10.434;2022-09-20T08:09:19;101812.47;;;19.11;55.52
73558;BME280;61829;53.286;10.434;2022-09-20T08:11:46;101812.28;;;19.06;56.80
73558;BME280;61829;53.286;10.434;2022-09-20T08:14:14;101821.50;;;19.12;56.24
73558;BME280;61829;53.286;10.434;2022-09-20T08:16:46;101829.41;;;19.26;56.61
73558;BME280;61829;53.286;10.434;2022-09-20T08:19:21;101825.34;;;19.42;55.79
73558;BME280;61829;53.286;10.434;2022-09-20T08:21:50;101820.81;;;19.23;55.14
73558;BME280;61829;53.286;10.434;2022-09-20T08:24:17;101825.22;;;19.24;56.16
73558;BME280;61829;53.286;10.434;2022-09-20T08:26:44;101825.50;;;19.09;55.19
73558;BME280;61829;53.286;10.434;2022-09-20T08:29:10;101834.97;;;19.06;56.14
73558;BME280;61829;53.286;10.434;2022-09-20T08:31:38;101831.06;;;19.27;56.07
73558;BME280;61829;53.286;10.434;2022-09-20T08:34:08;101834.19;;;19.38;55.49
73558;BME280;61829;53.286;10.434;2022-09-20T08:36:37;101830.47;;;19.25;56.84
73558;BME280;61829;53.286;10.434;2022-09-20T08:39:07;101833.53;;;19.36;56.27
73558;BME280;61829;53.286;10.434;2022-09-20T08:41:47;101834.81;;;19.40;55.74
73558;BME280;61829;53.286;10.434;2022-09-20T08:44:47;101829.34;;;19.40;55.21
73558;BME280;61829;53.286;10.434;2022-09-20T08:47:23;101835.50;;;19.60;56.22
73558;BME280;61829;53.286;10.434;2022-09-20T08:49:51;101841.97;;;19.72;55.86
73558;BME280;61829;53.286;10.434;2022-09-20T08:52:32;101829.34;;;19.33;55.11
73558;BME280;61829;53.286;10.434;2022-09-20T08:55:00;101834.47;;;19.23;56.26
73558;BME280;61829;53.286;10.434;2022-09-20T08:57:29;101833.53;;;18.97;57.35
73558;BME280;61829;53.286;10.434;2022-09-20T08:59:58;101836.22;;;19.04;57.22
73558;BME280;61829;53.286;10.434;2022-09-20T09:02:24;101839.16;;;19.09;56.35
73558;BME280;61829;53.286;10.434;2022-09-20T09:04:50;101844.16;;;19.19;56.51
73558;BME280;61829;53.286;10.434;2022-09-20T09:07:20;101842.63;;;19.29;55.96
73558;BME280;61829;53.286;10.434;2022-09-20T09:09:47;101846.00;;;19.32;55.44
73558;BME280;61829;53.286;10.434;2022-09-20T09:14:51;101846.63;;;19.34;55.77
73558;BME280;61829;53.286;10.434;2022-09-20T09:17:28;101840.63;;;19.50;55.69
73558;BME280;61829;53.286;10.434;2022-09-20T09:20:15;101846.84;;;19.64;55.99
73558;BME280;61829;53.286;10.434;2022-09-20T09:22:46;101846.78;;;19.77;55.37
73558;BME280;61829;53.286;10.434;2022-09-20T09:25:38;101848.69;;;19.77;52.67
73558;BME280;61829;53.286;10.434;2022-09-20T09:30:40;101855.19;;;19.82;53.55
73558;BME280;61829;53.286;10.434;2022-09-20T09:36:07;101854.00;;;19.71;54.29
73558;BME280;61829;53.286;10.434;2022-09-20T09:38:34;101857.34;;;19.73;53.25
73558;BME280;61829;53.286;10.434;2022-09-20T09:41:04;101861.63;;;19.56;52.83
73558;BME280;61829;53.286;10.434;2022-09-20T09:43:33;101857.78;;;19.70;53.31
73558;BME280;61829;53.286;10.434;2022-09-20T09:46:19;101855.50;;;19.61;53.28
73558;BME280;61829;53.286;10.434;2022-09-20T09:49:12;101855.34;;;19.49;53.55
73558;BME280;61829;53.286;10.434;2022-09-20T09:51:40;101858.03;;;19.62;52.47
73558;BME280;61829;53.286;10.434;2022-09-20T09:54:13;101856.53;;;19.66;49.39
73558;BME280;61829;53.286;10.434;2022-09-20T09:59:38;101864.41;;;18.98;52.19
73558;BME280;61829;53.286;10.434;2022-09-20T10:08:12;101851.38;;;19.00;53.46
73558;BME280;61829;53.286;10.434;2022-09-20T10:16:45;101859.56;;;19.06;50.46
73558;BME280;61829;53.286;10.434;2022-09-20T10:22:13;101855.94;;;19.13;49.94
73558;BME280;61829;53.286;10.434;2022-09-20T10:27:37;101853.75;;;19.35;51.58
73558;BME280;61829;53.286;10.434;2022-09-20T10:30:18;101861.44;;;19.06;50.85
73558;BME280;61829;53.286;10.434;2022-09-20T10:33:01;101865.13;;;19.32;51.65
73558;BME280;61829;53.286;10.434;2022-09-20T10:35:54;101861.56;;;19.69;50.30
73558;BME280;61829;53.286;10.434;2022-09-20T10:38:36;101860.06;;;20.05;50.17
73558;BME280;61829;53.286;10.434;2022-09-20T10:49:41;101865.56;;;19.22;46.91
73558;BME280;61829;53.286;10.434;2022-09-20T10:52:33;101855.13;;;19.12;48.97
73558;BME280;61829;53.286;10.434;2022-09-20T10:57:56;101865.91;;;19.45;48.59
73558;BME280;61829;53.286;10.434;2022-09-20T11:08:54;101867.91;;;19.18;45.75
73558;BME280;61829;53.286;10.434;2022-09-20T11:11:33;101858.97;;;19.36;46.15
73558;BME280;61829;53.286;10.434;2022-09-20T11:14:10;101862.75;;;19.42;44.38
73558;BME280;61829;53.286;10.434;2022-09-20T11:16:57;101866.25;;;19.56;44.06
73558;BME280;61829;53.286;10.434;2022-09-20T11:19:34;101863.91;;;19.66;45.78
73558;BME280;61829;53.286;10.434;2022-09-20T11:22:30;101870.00;;;19.61;46.73
73558;BME280;61829;53.286;10.434;2022-09-20T11:24:57;101864.19;;;19.44;48.22
73558;BME280;61829;53.286;10.434;2022-09-20T11:27:42;101866.72;;;19.46;46.27
73558;BME280;61829;53.286;10.434;2022-09-20T11:30:21;101874.34;;;19.76;47.56
73558;BME280;61829;53.286;10.434;2022-09-20T11:32:59;101873.63;;;19.93;45.84
73558;BME280;61829;53.286;10.434;2022-09-20T11:35:37;101868.59;;;20.15;46.96
73558;BME280;61829;53.286;10.434;2022-09-20T11:43:38;101868.75;;;20.46;43.79
73558;BME280;61829;53.286;10.434;2022-09-20T11:46:10;101863.19;;;20.34;41.92
73558;BME280;61829;53.286;10.434;2022-09-20T11:48:47;101859.25;;;20.23;41.92
73558;BME280;61829;53.286;10.434;2022-09-20T11:56:33;101874.00;;;20.47;41.74
73558;BME280;61829;53.286;10.434;2022-09-20T11:59:05;101870.47;;;20.40;41.27
73558;BME280;61829;53.286;10.434;2022-09-20T12:01:39;101867.94;;;20.20;42.27
73558;BME280;61829;53.286;10.434;2022-09-20T12:06:44;101863.63;;;20.31;44.12
73558;BME280;61829;53.286;10.434;2022-09-20T12:09:30;101864.00;;;20.59;42.55
73558;BME280;61829;53.286;10.434;2022-09-20T12:11:59;101866.59;;;20.54;43.07
73558;BME280;61829;53.286;10.434;2022-09-20T12:14:39;101865.81;;;20.47;41.53
73558;BME280;61829;53.286;10.434;2022-09-20T12:28:43;101876.50;;;20.55;42.65
73558;BME280;61829;53.286;10.434;2022-09-20T12:39:15;101875.72;;;19.91;45.32
73558;BME280;61829;53.286;10.434;2022-09-20T12:42:05;101880.84;;;19.81;45.04
73558;BME280;61829;53.286;10.434;2022-09-20T12:45:05;101876.50;;;19.67;44.69
73558;BME280;61829;53.286;10.434;2022-09-20T12:47:51;101879.09;;;19.55;44.41
73558;BME280;61829;53.286;10.434;2022-09-20T12:50:20;101878.97;;;19.37;45.32
73558;BME280;61829;53.286;10.434;2022-09-20T12:53:13;101882.84;;;19.16;44.60
73558;BME280;61829;53.286;10.434;2022-09-20T13:13:54;101876.16;;;19.05;46.39
73558;BME280;61829;53.286;10.434;2022-09-20T13:21:30;101862.69;;;19.10;45.53
73558;BME280;61829;53.286;10.434;2022-09-20T13:23:58;101872.38;;;18.99;43.92
73558;BME280;61829;53.286;10.434;2022-09-20T13:26:29;101869.94;;;18.78;44.57
73558;BME280;61829;53.286;10.434;2022-09-20T13:28:58;101875.81;;;18.61;44.51
73558;BME280;61829;53.286;10.434;2022-09-20T13:31:25;101873.31;;;18.53;45.19
73558;BME280;61829;53.286;10.434;2022-09-20T13:33:52;101869.28;;;18.62;46.67
73558;BME280;61829;53.286;10.434;2022-09-20T13:36:24;101880.03;;;18.77;47.39
73558;BME280;61829;53.286;10.434;2022-09-20T13:38:56;101884.41;;;18.92;46.94
73558;BME280;61829;53.286;10.434;2022-09-20T13:41:26;101882.72;;;18.97;46.30
73558;BME280;61829;53.286;10.434;2022-09-20T13:43:53;101876.00;;;18.87;43.36
73558;BME280;61829;53.286;10.434;2022-09-20T13:46:28;101880.47;;;18.54;41.62
73558;BME280;61829;53.286;10.434;2022-09-20T13:49:14;101882.97;;;18.36;43.34
73558;BME280;61829;53.286;10.434;2022-09-20T13:51:42;101886.34;;;18.31;44.44
73558;BME280;61829;53.286;10.434;2022-09-20T13:54:27;101883.84;;;18.23;47.27
73558;BME280;61829;53.286;10.434;2022-09-20T13:57:01;101883.41;;;18.33;46.21
73558;BME280;61829;53.286;10.434;2022-09-20T13:59:40;101880.69;;;18.26;44.84
73558;BME280;61829;53.286;10.434;2022-09-20T14:02:25;101877.09;;;18.26;47.15
73558;BME280;61829;53.286;10.434;2022-09-20T14:04:56;101874.19;;;18.27;46.72
73558;BME280;61829;53.286;10.434;2022-09-20T14:07:26;101880.03;;;18.31;47.36
73558;BME280;61829;53.286;10.434;2022-09-20T14:09:54;101877.94;;;18.39;47.66
73558;BME280;61829;53.286;10.434;2022-09-20T14:12:22;101883.84;;;18.43;46.40
73558;BME280;61829;53.286;10.434;2022-09-20T14:14:50;101874.19;;;18.40;46.88
73558;BME280;61829;53.286;10.434;2022-09-20T14:17:19;101879.00;;;18.32;46.62
73558;BME280;61829;53.286;10.434;2022-09-20T14:19:50;101883.81;;;18.36;46.61
73558;BME280;61829;53.286;10.434;2022-09-20T14:22:23;101890.09;;;18.37;46.35
73558;BME280;61829;53.286;10.434;2022-09-20T14:24:59;101883.00;;;18.29;44.12
73558;BME280;61829;53.286;10.434;2022-09-20T14:27:26;101886.56;;;18.23;45.43
73558;BME280;61829;53.286;10.434;2022-09-20T14:29:54;101891.19;;;18.09;43.81
73558;BME280;61829;53.286;10.434;2022-09-20T14:32:33;101884.66;;;17.90;43.47
73558;BME280;61829;53.286;10.434;2022-09-20T14:35:14;101893.81;;;17.76;43.18
73558;BME280;61829;53.286;10.434;2022-09-20T14:37:58;101895.22;;;17.52;44.53
73558;BME280;61829;53.286;10.434;2022-09-20T14:40:29;101895.84;;;17.47;45.36
73558;BME280;61829;53.286;10.434;2022-09-20T14:43:05;101894.56;;;17.43;46.98
73558;BME280;61829;53.286;10.434;2022-09-20T14:45:37;101890.81;;;17.44;45.11
73558;BME280;61829;53.286;10.434;2022-09-20T14:48:31;101901.69;;;17.44;47.42
73558;BME280;61829;53.286;10.434;2022-09-20T14:53:52;101899.75;;;17.32;48.19
73558;BME280;61829;53.286;10.434;2022-09-20T14:56:40;101895.34;;;17.24;47.15
73558;BME280;61829;53.286;10.434;2022-09-20T15:01:35;101900.53;;;17.19;47.96
73558;BME280;61829;53.286;10.434;2022-09-20T15:04:19;101900.91;;;17.09;45.46
73558;BME280;61829;53.286;10.434;2022-09-20T15:06:47;101906.97;;;17.04;48.50
73558;BME280;61829;53.286;10.434;2022-09-20T15:09:14;101901.06;;;17.01;48.33
73558;BME280;61829;53.286;10.434;2022-09-20T15:11:40;101910.88;;;16.95;49.39
73558;BME280;61829;53.286;10.434;2022-09-20T15:14:06;101910.88;;;16.95;50.58
73558;BME280;61829;53.286;10.434;2022-09-20T15:16:33;101910.59;;;16.83;47.59
73558;BME280;61829;53.286;10.434;2022-09-20T15:18:59;101912.59;;;16.75;47.55
73558;BME280;61829;53.286;10.434;2022-09-20T15:21:25;101907.53;;;16.65;48.21
73558;BME280;61829;53.286;10.434;2022-09-20T15:23:53;101910.59;;;16.55;48.42
73558;BME280;61829;53.286;10.434;2022-09-20T15:26:20;101911.38;;;16.49;49.98
73558;BME280;61829;53.286;10.434;2022-09-20T15:28:46;101910.44;;;16.35;48.77
73558;BME280;61829;53.286;10.434;2022-09-20T15:31:13;101916.66;;;16.29;49.03
73558;BME280;61829;53.286;10.434;2022-09-20T15:33:41;101913.91;;;16.23;48.76
73558;BME280;61829;53.286;10.434;2022-09-20T15:36:07;101905.47;;;16.17;49.24
73558;BME280;61829;53.286;10.434;2022-09-20T15:38:34;101917.75;;;16.13;50.82
73558;BME280;61829;53.286;10.434;2022-09-20T15:41:22;101919.47;;;16.14;51.35
73558;BME280;61829;53.286;10.434;2022-09-20T15:43:48;101910.47;;;16.14;49.24
73558;BME280;61829;53.286;10.434;2022-09-20T15:46:20;101916.44;;;16.03;50.82
73558;BME280;61829;53.286;10.434;2022-09-20T15:48:46;101911.78;;;15.97;48.26
73558;BME280;61829;53.286;10.434;2022-09-20T15:51:15;101914.78;;;15.87;53.01
73558;BME280;61829;53.286;10.434;2022-09-20T15:53:43;101921.00;;;15.81;52.92
73558;BME280;61829;53.286;10.434;2022-09-20T15:56:18;101914.06;;;15.78;52.31
73558;BME280;61829;53.286;10.434;2022-09-20T15:58:50;101910.53;;;15.78;52.56
73558;BME280;61829;53.286;10.434;2022-09-20T16:01:17;101914.25;;;15.77;50.76
73558;BME280;61829;53.286;10.434;2022-09-20T16:03:45;101916.25;;;15.68;51.03
73558;BME280;61829;53.286;10.434;2022-09-20T16:06:12;101929.56;;;15.63;51.34
73558;BME280;61829;53.286;10.434;2022-09-20T16:08:40;101934.72;;;15.58;50.00
73558;BME280;61829;53.286;10.434;2022-09-20T16:11:08;101931.28;;;15.49;49.95
73558;BME280;61829;53.286;10.434;2022-09-20T16:13:34;101931.38;;;15.41;51.10
73558;BME280;61829;53.286;10.434;2022-09-20T16:16:05;101943.63;;;15.37;50.23
73558;BME280;61829;53.286;10.434;2022-09-20T16:18:35;101935.41;;;15.30;50.83
73558;BME280;61829;53.286;10.434;2022-09-20T16:21:20;101940.09;;;15.21;51.88
73558;BME280;61829;53.286;10.434;2022-09-20T16:23:50;101943.00;;;15.20;51.73
73558;BME280;61829;53.286;10.434;2022-09-20T16:26:17;101946.69;;;15.12;51.52
73558;BME280;61829;53.286;10.434;2022-09-20T16:28:47;101951.16;;;15.05;52.77
73558;BME280;61829;53.286;10.434;2022-09-20T16:36:36;101960.59;;;14.94;54.12
73558;BME280;61829;53.286;10.434;2022-09-20T16:39:03;101960.41;;;14.96;54.24
73558;BME280;61829;53.286;10.434;2022-09-20T16:41:29;101960.41;;;14.96;56.06
73558;BME280;61829;53.286;10.434;2022-09-20T16:43:57;101965.38;;;14.92;55.93
73558;BME280;61829;53.286;10.434;2022-09-20T16:46:24;101966.59;;;14.90;55.89
73558;BME280;61829;53.286;10.434;2022-09-20T16:48:55;101975.75;;;14.89;55.69
73558;BME280;61829;53.286;10.434;2022-09-20T16:51:21;101966.13;;;14.86;56.39
73558;BME280;61829;53.286;10.434;2022-09-20T16:53:52;101971.72;;;14.85;56.09
73558;BME280;61829;53.286;10.434;2022-09-20T16:56:26;101974.81;;;14.81;56.67
73558;BME280;61829;53.286;10.434;2022-09-20T16:58:52;101978.06;;;14.77;56.99
73558;BME280;61829;53.286;10.434;2022-09-20T17:01:19;101973.22;;;14.72;57.24
73558;BME280;61829;53.286;10.434;2022-09-20T17:03:45;101975.44;;;14.69;57.24
73558;BME280;61829;53.286;10.434;2022-09-20T17:06:15;101978.72;;;14.64;57.10
73558;BME280;61829;53.286;10.434;2022-09-20T17:08:42;101981.13;;;14.59;57.47
73558;BME280;61829;53.286;10.434;2022-09-20T17:11:16;101980.84;;;14.54;57.61
73558;BME280;61829;53.286;10.434;2022-09-20T17:13:44;101990.50;;;14.48;58.52
73558;BME280;61829;53.286;10.434;2022-09-20T17:16:26;101986.66;;;14.43;58.76
73558;BME280;61829;53.286;10.434;2022-09-20T17:18:53;101995.69;;;14.35;59.20
73558;BME280;61829;53.286;10.434;2022-09-20T17:21:21;101997.47;;;14.28;58.78
73558;BME280;61829;53.286;10.434;2022-09-20T17:23:47;101992.09;;;14.20;59.31
73558;BME280;61829;53.286;10.434;2022-09-20T17:26:18;101995.31;;;14.15;59.50
73558;BME280;61829;53.286;10.434;2022-09-20T17:28:46;102005.22;;;14.08;59.96
73558;BME280;61829;53.286;10.434;2022-09-20T17:31:15;102014.22;;;14.00;60.59
73558;BME280;61829;53.286;10.434;2022-09-20T17:33:42;102014.94;;;13.94;60.73
73558;BME280;61829;53.286;10.434;2022-09-20T17:36:12;102015.81;;;13.86;61.32
73558;BME280;61829;53.286;10.434;2022-09-20T17:38:40;102015.88;;;13.78;61.56
73558;BME280;61829;53.286;10.434;2022-09-20T17:41:09;102021.16;;;13.72;61.57
73558;BME280;61829;53.286;10.434;2022-09-20T17:43:36;102018.31;;;13.65;61.90
73558;BME280;61829;53.286;10.434;2022-09-20T17:46:19;102016.47;;;13.57;61.91
73558;BME280;61829;53.286;10.434;2022-09-20T17:48:51;102029.88;;;13.51;61.92
73558;BME280;61829;53.286;10.434;2022-09-20T17:51:23;102035.31;;;13.42;62.22
73558;BME280;61829;53.286;10.434;2022-09-20T17:53:51;102031.97;;;13.32;63.07
73558;BME280;61829;53.286;10.434;2022-09-20T17:56:18;102038.53;;;13.21;63.85
73558;BME280;61829;53.286;10.434;2022-09-20T17:58:47;102041.81;;;13.09;64.43
73558;BME280;61829;53.286;10.434;2022-09-20T18:01:15;102033.19;;;12.97;65.20
73558;BME280;61829;53.286;10.434;2022-09-20T18:03:44;102042.50;;;12.86;65.61
73558;BME280;61829;53.286;10.434;2022-09-20T18:06:18;102047.91;;;12.78;66.11
73558;BME280;61829;53.286;10.434;2022-09-20T18:08:52;102050.28;;;12.73;66.54
73558;BME280;61829;53.286;10.434;2022-09-20T18:13:58;102047.75;;;12.63;66.73
73558;BME280;61829;53.286;10.434;2022-09-20T18:16:25;102060.09;;;12.57;66.73
73558;BME280;61829;53.286;10.434;2022-09-20T18:18:51;102059.72;;;12.52;66.89
73558;BME280;61829;53.286;10.434;2022-09-20T18:21:22;102060.41;;;12.46;67.14
73558;BME280;61829;53.286;10.434;2022-09-20T18:23:49;102070.19;;;12.39;67.46